sensor_id;sensor_type;location;lat;lon;timestamp;temperature;humidity
35541;DHT22;21650;48.840;9.162;2022-08-27T00:02:14;18.90;99.90
35541;DHT22;21650;48.840;9.162;2022-08-27T00:04:40;18.90;99.90
35541;DHT22;21650;48.840;9.162;2022-08-27T00:07:07;18.90;99.90
35541;DHT22;21650;48.840;9.162;2022-08-27T00:09:33;18.90;99.90
35541;DHT22;21650;48.840;9.162;2022-08-27T00:11:59;18.90;99.90
35541;DHT22;21650;48.840;9.162;2022-08-27T00:14:26;18.90;99.90
35541;DHT22;21650;48.840;9.162;2022-08-27T00:16:53;19.00;99.90
35541;DHT22;21650;48.840;9.162;2022-08-27T00:19:19;18.90;99.90
35541;DHT22;21650;48.840;9.162;2022-08-27T00:21:45;19.00;99.90
35541;DHT22;21650;48.840;9.162;2022-08-27T00:24:11;19.00;99.90
35541;DHT22;21650;48.840;9.162;2022-08-27T00:26:37;19.00;99.90
35541;DHT22;21650;48.840;9.162;2022-08-27T00:29:04;19.00;99.90
35541;DHT22;21650;48.840;9.162;2022-08-27T00:31:30;19.00;99.90
35541;DHT22;21650;48.840;9.162;2022-08-27T00:33:56;19.00;99.90
35541;DHT22;21650;48.840;9.162;2022-08-27T00:36:22;19.00;99.90
35541;DHT22;21650;48.840;9.162;2022-08-27T00:38:48;19.10;99.90
35541;DHT22;21650;48.840;9.162;2022-08-27T00:41:14;19.00;99.90
35541;DHT22;21650;48.840;9.162;2022-08-27T00:43:56;19.10;99.90
35541;DHT22;21650;48.840;9.162;2022-08-27T00:46:27;19.00;99.90
35541;DHT22;21650;48.840;9.162;2022-08-27T00:48:58;19.00;99.90
35541;DHT22;21650;48.840;9.162;2022-08-27T00:51:26;19.10;99.90
35541;DHT22;21650;48.840;9.162;2022-08-27T00:53:53;19.10;99.90
35541;DHT22;21650;48.840;9.162;2022-08-27T00:56:25;19.10;99.90
35541;DHT22;21650;48.840;9.162;2022-08-27T00:58:54;19.20;99.90
35541;DHT22;21650;48.840;9.162;2022-08-27T01:01:30;19.10;99.90
35541;DHT22;21650;48.840;9.162;2022-08-27T01:03:58;19.20;99.90
35541;DHT22;21650;48.840;9.162;2022-08-27T01:06:35;19.20;99.90
35541;DHT22;21650;48.840;9.162;2022-08-27T01:09:08;19.20;99.90
35541;DHT22;21650;48.840;9.162;2022-08-27T01:11:36;19.10;99.90
35541;DHT22;21650;48.840;9.162;2022-08-27T01:14:03;19.20;99.90
35541;DHT22;21650;48.840;9.162;2022-08-27T01:16:34;19.30;99.90
35541;DHT22;21650;48.840;9.162;2022-08-27T01:19:01;19.40;99.90
35541;DHT22;21650;48.840;9.162;2022-08-27T01:21:41;19.40;99.90
35541;DHT22;21650;48.840;9.162;2022-08-27T01:24:36;19.50;99.90
35541;DHT22;21650;48.840;9.162;2022-08-27T01:27:04;19.50;99.90
35541;DHT22;21650;48.840;9.162;2022-08-27T01:29:31;19.50;99.90
35541;DHT22;21650;48.840;9.162;2022-08-27T01:32:11;19.50;99.90
35541;DHT22;21650;48.840;9.162;2022-08-27T01:34:37;19.50;99.90
35541;DHT22;21650;48.840;9.162;2022-08-27T01:37:03;19.50;99.90
35541;DHT22;21650;48.840;9.162;2022-08-27T01:39:35;19.50;99.90
35541;DHT22;21650;48.840;9.162;2022-08-27T01:42:08;19.50;99.90
35541;DHT22;21650;48.840;9.162;2022-08-27T01:44:48;19.50;99.90
35541;DHT22;21650;48.840;9.162;2022-08-27T01:47:15;19.40;99.90
35541;DHT22;21650;48.840;9.162;2022-08-27T01:49:41;19.40;99.90
35541;DHT22;21650;48.840;9.162;2022-08-27T01:52:07;19.40;99.90
35541;DHT22;21650;48.840;9.162;2022-08-27T01:54:33;19.50;99.90
35541;DHT22;21650;48.840;9.162;2022-08-27T01:56:58;19.40;99.90
35541;DHT22;21650;48.840;9.162;2022-08-27T01:59:24;19.40;99.90
35541;DHT22;21650;48.840;9.162;2022-08-27T02:01:51;19.40;99.90
35541;DHT22;21650;48.840;9.162;2022-08-27T02:04:18;19.30;99.90
35541;DHT22;21650;48.840;9.162;2022-08-27T02:06:43;19.10;99.90
35541;DHT22;21650;48.840;9.162;2022-08-27T02:09:09;19.00;99.90
35541;DHT22;21650;48.840;9.162;2022-08-27T02:11:35;18.90;99.90
35541;DHT22;21650;48.840;9.162;2022-08-27T02:14:00;18.90;99.90
35541;DHT22;21650;48.840;9.162;2022-08-27T02:16:26;18.90;99.90
35541;DHT22;21650;48.840;9.162;2022-08-27T02:18:51;18.90;99.90
35541;DHT22;21650;48.840;9.162;2022-08-27T02:21:19;18.90;99.90
35541;DHT22;21650;48.840;9.162;2022-08-27T02:23:45;18.90;99.90
35541;DHT22;21650;48.840;9.162;2022-08-27T02:26:10;18.80;99.90
35541;DHT22;21650;48.840;9.162;2022-08-27T02:28:36;18.80;99.90
35541;DHT22;21650;48.840;9.162;2022-08-27T02:31:03;18.80;99.90
35541;DHT22;21650;48.840;9.162;2022-08-27T02:33:29;18.80;99.90
35541;DHT22;21650;48.840;9.162;2022-08-27T02:35:58;18.80;99.90
35541;DHT22;21650;48.840;9.162;2022-08-27T02:38:23;18.80;99.90
35541;DHT22;21650;48.840;9.162;2022-08-27T02:40:49;18.80;99.90
35541;DHT22;21650;48.840;9.162;2022-08-27T02:43:15;18.90;99.90
35541;DHT22;21650;48.840;9.162;2022-08-27T02:45:40;19.00;99.90
35541;DHT22;21650;48.840;9.162;2022-08-27T02:48:06;18.90;99.90
35541;DHT22;21650;48.840;9.162;2022-08-27T02:50:32;18.90;99.90
35541;DHT22;21650;48.840;9.162;2022-08-27T02:53:00;18.90;99.90
35541;DHT22;21650;48.840;9.162;2022-08-27T02:55:27;18.80;99.90
35541;DHT22;21650;48.840;9.162;2022-08-27T02:57:53;18.80;99.90
35541;DHT22;21650;48.840;9.162;2022-08-27T03:00:20;18.90;99.90
35541;DHT22;21650;48.840;9.162;2022-08-27T03:02:46;18.80;99.90
35541;DHT22;21650;48.840;9.162;2022-08-27T03:05:13;18.70;99.90
35541;DHT22;21650;48.840;9.162;2022-08-27T03:07:39;18.70;99.90
35541;DHT22;21650;48.840;9.162;2022-08-27T03:10:05;18.80;99.90
35541;DHT22;21650;48.840;9.162;2022-08-27T03:12:32;18.80;99.90
35541;DHT22;21650;48.840;9.162;2022-08-27T03:15:01;18.90;99.90
35541;DHT22;21650;48.840;9.162;2022-08-27T03:17:27;18.70;99.90
35541;DHT22;21650;48.840;9.162;2022-08-27T03:20:11;18.60;99.90
35541;DHT22;21650;48.840;9.162;2022-08-27T03:22:38;18.60;99.90
35541;DHT22;21650;48.840;9.162;2022-08-27T03:25:05;18.60;99.90
35541;DHT22;21650;48.840;9.162;2022-08-27T03:27:30;18.70;99.90
35541;DHT22;21650;48.840;9.162;2022-08-27T03:29:56;18.70;99.90
35541;DHT22;21650;48.840;9.162;2022-08-27T03:32:22;18.70;99.90
35541;DHT22;21650;48.840;9.162;2022-08-27T03:34:48;18.60;99.90
35541;DHT22;21650;48.840;9.162;2022-08-27T03:37:14;18.50;99.90
35541;DHT22;21650;48.840;9.162;2022-08-27T03:39:40;18.60;99.90
35541;DHT22;21650;48.840;9.162;2022-08-27T03:42:05;18.60;99.90
35541;DHT22;21650;48.840;9.162;2022-08-27T03:44:31;18.50;99.90
35541;DHT22;21650;48.840;9.162;2022-08-27T03:46:57;18.60;99.90
35541;DHT22;21650;48.840;9.162;2022-08-27T03:49:23;18.50;99.90
35541;DHT22;21650;48.840;9.162;2022-08-27T03:51:49;18.50;99.90
35541;DHT22;21650;48.840;9.162;2022-08-27T03:54:15;18.50;99.90
35541;DHT22;21650;48.840;9.162;2022-08-27T03:56:41;18.50;99.90
35541;DHT22;21650;48.840;9.162;2022-08-27T03:59:06;18.40;99.90
35541;DHT22;21650;48.840;9.162;2022-08-27T04:01:32;18.50;99.90
35541;DHT22;21650;48.840;9.162;2022-08-27T04:03:58;18.40;99.90
35541;DHT22;21650;48.840;9.162;2022-08-27T04:06:24;18.50;99.90
35541;DHT22;21650;48.840;9.162;2022-08-27T04:08:49;18.40;99.90
35541;DHT22;21650;48.840;9.162;2022-08-27T04:11:15;18.40;99.90
35541;DHT22;21650;48.840;9.162;2022-08-27T04:13:41;18.40;99.90
35541;DHT22;21650;48.840;9.162;2022-08-27T04:16:06;18.40;99.90
35541;DHT22;21650;48.840;9.162;2022-08-27T04:18:32;18.40;99.90
35541;DHT22;21650;48.840;9.162;2022-08-27T04:21:06;18.40;99.90
35541;DHT22;21650;48.840;9.162;2022-08-27T04:23:32;18.40;99.90
35541;DHT22;21650;48.840;9.162;2022-08-27T04:25:58;18.30;99.90
35541;DHT22;21650;48.840;9.162;2022-08-27T04:28:24;18.30;99.90
35541;DHT22;21650;48.840;9.162;2022-08-27T04:30:50;18.40;99.90
35541;DHT22;21650;48.840;9.162;2022-08-27T04:33:16;18.30;99.90
35541;DHT22;21650;48.840;9.162;2022-08-27T04:35:42;18.30;99.90
35541;DHT22;21650;48.840;9.162;2022-08-27T04:38:07;18.40;99.90
35541;DHT22;21650;48.840;9.162;2022-08-27T04:40:35;18.30;99.90
35541;DHT22;21650;48.840;9.162;2022-08-27T04:43:20;18.40;99.90
35541;DHT22;21650;48.840;9.162;2022-08-27T04:45:47;18.40;99.90
35541;DHT22;21650;48.840;9.162;2022-08-27T04:48:15;18.40;99.90
35541;DHT22;21650;48.840;9.162;2022-08-27T04:50:42;18.40;99.90
35541;DHT22;21650;48.840;9.162;2022-08-27T04:53:09;18.40;99.90
35541;DHT22;21650;48.840;9.162;2022-08-27T04:55:43;18.40;99.90
35541;DHT22;21650;48.840;9.162;2022-08-27T04:58:09;18.40;99.90
35541;DHT22;21650;48.840;9.162;2022-08-27T05:00:41;18.40;99.90
35541;DHT22;21650;48.840;9.162;2022-08-27T05:03:06;18.50;99.90
35541;DHT22;21650;48.840;9.162;2022-08-27T05:05:32;18.50;99.90
35541;DHT22;21650;48.840;9.162;2022-08-27T05:07:57;18.50;99.90
35541;DHT22;21650;48.840;9.162;2022-08-27T05:10:23;18.50;99.90
35541;DHT22;21650;48.840;9.162;2022-08-27T05:12:48;18.50;99.90
35541;DHT22;21650;48.840;9.162;2022-08-27T05:15:14;18.60;99.90
35541;DHT22;21650;48.840;9.162;2022-08-27T05:17:40;18.60;99.90
35541;DHT22;21650;48.840;9.162;2022-08-27T05:20:06;18.60;99.90
35541;DHT22;21650;48.840;9.162;2022-08-27T05:22:32;18.60;99.90
35541;DHT22;21650;48.840;9.162;2022-08-27T05:24:58;18.60;99.90
35541;DHT22;21650;48.840;9.162;2022-08-27T05:27:24;18.70;99.90
35541;DHT22;21650;48.840;9.162;2022-08-27T05:29:50;18.70;99.90
35541;DHT22;21650;48.840;9.162;2022-08-27T05:32:15;18.70;99.90
35541;DHT22;21650;48.840;9.162;2022-08-27T05:34:41;18.60;99.90
35541;DHT22;21650;48.840;9.162;2022-08-27T05:37:06;18.70;99.90
35541;DHT22;21650;48.840;9.162;2022-08-27T05:39:32;18.70;99.90
35541;DHT22;21650;48.840;9.162;2022-08-27T05:41:58;18.70;99.90
35541;DHT22;21650;48.840;9.162;2022-08-27T05:44:24;18.70;99.90
35541;DHT22;21650;48.840;9.162;2022-08-27T05:46:49;18.70;99.90
35541;DHT22;21650;48.840;9.162;2022-08-27T05:49:15;18.70;99.90
35541;DHT22;21650;48.840;9.162;2022-08-27T05:51:41;18.70;99.90
35541;DHT22;21650;48.840;9.162;2022-08-27T05:54:08;18.80;99.90
35541;DHT22;21650;48.840;9.162;2022-08-27T05:56:40;18.80;99.90
35541;DHT22;21650;48.840;9.162;2022-08-27T05:59:06;18.70;99.90
35541;DHT22;21650;48.840;9.162;2022-08-27T06:01:53;18.70;99.90
35541;DHT22;21650;48.840;9.162;2022-08-27T06:04:20;18.80;99.90
35541;DHT22;21650;48.840;9.162;2022-08-27T06:06:48;18.80;99.90
35541;DHT22;21650;48.840;9.162;2022-08-27T06:09:16;18.90;99.90
35541;DHT22;21650;48.840;9.162;2022-08-27T06:11:42;18.90;99.90
35541;DHT22;21650;48.840;9.162;2022-08-27T06:14:09;18.90;99.90
35541;DHT22;21650;48.840;9.162;2022-08-27T06:16:36;18.90;99.90
35541;DHT22;21650;48.840;9.162;2022-08-27T06:19:02;18.90;99.90
35541;DHT22;21650;48.840;9.162;2022-08-27T06:21:28;18.90;99.90
35541;DHT22;21650;48.840;9.162;2022-08-27T06:23:54;18.90;99.90
35541;DHT22;21650;48.840;9.162;2022-08-27T06:26:21;18.90;99.90
35541;DHT22;21650;48.840;9.162;2022-08-27T06:28:47;19.00;99.90
35541;DHT22;21650;48.840;9.162;2022-08-27T06:31:19;19.00;99.90
35541;DHT22;21650;48.840;9.162;2022-08-27T06:33:46;19.10;99.90
35541;DHT22;21650;48.840;9.162;2022-08-27T06:36:15;19.20;99.90
35541;DHT22;21650;48.840;9.162;2022-08-27T06:38:40;19.10;99.90
35541;DHT22;21650;48.840;9.162;2022-08-27T06:41:08;19.10;99.90
35541;DHT22;21650;48.840;9.162;2022-08-27T06:43:36;19.30;99.90
35541;DHT22;21650;48.840;9.162;2022-08-27T06:46:08;19.30;99.90
35541;DHT22;21650;48.840;9.162;2022-08-27T06:48:34;19.40;99.90
35541;DHT22;21650;48.840;9.162;2022-08-27T06:51:06;19.40;99.90
35541;DHT22;21650;48.840;9.162;2022-08-27T06:53:32;19.40;99.90
35541;DHT22;21650;48.840;9.162;2022-08-27T06:55:58;19.40;99.90
35541;DHT22;21650;48.840;9.162;2022-08-27T06:58:23;19.50;99.90
35541;DHT22;21650;48.840;9.162;2022-08-27T07:00:49;19.40;99.90
35541;DHT22;21650;48.840;9.162;2022-08-27T07:03:15;19.30;99.90
35541;DHT22;21650;48.840;9.162;2022-08-27T07:05:41;19.30;99.90
35541;DHT22;21650;48.840;9.162;2022-08-27T07:08:07;19.30;99.90
35541;DHT22;21650;48.840;9.162;2022-08-27T07:10:34;19.30;99.90
35541;DHT22;21650;48.840;9.162;2022-08-27T07:13:00;19.40;99.90
35541;DHT22;21650;48.840;9.162;2022-08-27T07:15:26;19.30;99.90
35541;DHT22;21650;48.840;9.162;2022-08-27T07:17:52;19.30;99.90
35541;DHT22;21650;48.840;9.162;2022-08-27T07:20:19;19.40;99.90
35541;DHT22;21650;48.840;9.162;2022-08-27T07:22:46;19.30;99.90
35541;DHT22;21650;48.840;9.162;2022-08-27T07:25:15;19.30;99.90
35541;DHT22;21650;48.840;9.162;2022-08-27T07:27:48;19.40;99.90
35541;DHT22;21650;48.840;9.162;2022-08-27T07:30:14;19.40;99.90
35541;DHT22;21650;48.840;9.162;2022-08-27T07:32:44;19.50;99.90
35541;DHT22;21650;48.840;9.162;2022-08-27T07:35:11;19.40;99.90
35541;DHT22;21650;48.840;9.162;2022-08-27T07:37:37;19.50;99.90
35541;DHT22;21650;48.840;9.162;2022-08-27T07:40:13;19.40;99.90
35541;DHT22;21650;48.840;9.162;2022-08-27T07:42:40;19.40;99.90
35541;DHT22;21650;48.840;9.162;2022-08-27T07:45:26;19.40;99.90
35541;DHT22;21650;48.840;9.162;2022-08-27T07:47:52;19.40;99.90
35541;DHT22;21650;48.840;9.162;2022-08-27T07:50:18;19.40;99.90
35541;DHT22;21650;48.840;9.162;2022-08-27T07:52:44;19.50;99.90
35541;DHT22;21650;48.840;9.162;2022-08-27T07:55:11;19.50;99.90
35541;DHT22;21650;48.840;9.162;2022-08-27T07:57:37;19.60;99.90
35541;DHT22;21650;48.840;9.162;2022-08-27T08:00:05;19.50;99.90
35541;DHT22;21650;48.840;9.162;2022-08-27T08:02:33;19.50;99.90
35541;DHT22;21650;48.840;9.162;2022-08-27T08:04:59;19.60;99.90
35541;DHT22;21650;48.840;9.162;2022-08-27T08:07:25;19.50;99.90
35541;DHT22;21650;48.840;9.162;2022-08-27T08:09:50;19.40;99.90
35541;DHT22;21650;48.840;9.162;2022-08-27T08:12:16;19.40;99.90
35541;DHT22;21650;48.840;9.162;2022-08-27T08:14:42;19.40;99.90
35541;DHT22;21650;48.840;9.162;2022-08-27T08:17:08;19.30;99.90
35541;DHT22;21650;48.840;9.162;2022-08-27T08:19:33;19.40;99.90
35541;DHT22;21650;48.840;9.162;2022-08-27T08:21:59;19.40;99.90
35541;DHT22;21650;48.840;9.162;2022-08-27T08:24:25;19.50;99.90
35541;DHT22;21650;48.840;9.162;2022-08-27T08:26:51;19.40;99.90
35541;DHT22;21650;48.840;9.162;2022-08-27T08:29:17;19.40;99.90
35541;DHT22;21650;48.840;9.162;2022-08-27T08:31:42;19.50;99.90
35541;DHT22;21650;48.840;9.162;2022-08-27T08:34:08;19.60;99.90
35541;DHT22;21650;48.840;9.162;2022-08-27T08:36:35;19.60;99.90
35541;DHT22;21650;48.840;9.162;2022-08-27T08:39:01;19.60;99.90
35541;DHT22;21650;48.840;9.162;2022-08-27T08:41:43;19.60;99.90
35541;DHT22;21650;48.840;9.162;2022-08-27T08:44:43;19.50;99.90
35541;DHT22;21650;48.840;9.162;2022-08-27T08:47:18;19.60;99.90
35541;DHT22;21650;48.840;9.162;2022-08-27T08:57:49;19.60;99.90
35541;DHT22;21650;48.840;9.162;2022-08-27T09:00:18;19.60;99.90
35541;DHT22;21650;48.840;9.162;2022-08-27T09:02:49;19.60;99.90
35541;DHT22;21650;48.840;9.162;2022-08-27T09:05:17;19.60;99.90
35541;DHT22;21650;48.840;9.162;2022-08-27T09:10:40;19.60;99.90
35541;DHT22;21650;48.840;9.162;2022-08-27T09:14:02;19.60;99.90
35541;DHT22;21650;48.840;9.162;2022-08-27T09:16:08;19.60;99.90
35541;DHT22;21650;48.840;9.162;2022-08-27T09:18:36;19.60;99.90
35541;DHT22;21650;48.840;9.162;2022-08-27T09:26:40;19.80;99.90
35541;DHT22;21650;48.840;9.162;2022-08-27T09:29:09;19.60;99.90
35541;DHT22;21650;48.840;9.162;2022-08-27T09:31:47;19.60;99.90
35541;DHT22;21650;48.840;9.162;2022-08-27T09:34:14;19.60;99.90
35541;DHT22;21650;48.840;9.162;2022-08-27T09:36:59;19.60;99.90
35541;DHT22;21650;48.840;9.162;2022-08-27T09:39:31;19.60;99.90
35541;DHT22;21650;48.840;9.162;2022-08-27T09:41:58;19.70;99.90
35541;DHT22;21650;48.840;9.162;2022-08-27T09:44:23;19.80;99.90
35541;DHT22;21650;48.840;9.162;2022-08-27T09:46:59;19.70;99.90
35541;DHT22;21650;48.840;9.162;2022-08-27T09:49:26;19.60;99.90
35541;DHT22;21650;48.840;9.162;2022-08-27T09:51:52;19.50;99.90
35541;DHT22;21650;48.840;9.162;2022-08-27T09:54:37;19.60;99.90
35541;DHT22;21650;48.840;9.162;2022-08-27T09:57:05;19.60;99.90
35541;DHT22;21650;48.840;9.162;2022-08-27T09:59:42;19.70;99.90
35541;DHT22;21650;48.840;9.162;2022-08-27T10:02:18;19.60;99.90
35541;DHT22;21650;48.840;9.162;2022-08-27T10:04:50;19.80;99.90
35541;DHT22;21650;48.840;9.162;2022-08-27T10:07:21;19.80;99.90
35541;DHT22;21650;48.840;9.162;2022-08-27T10:10:15;19.80;99.90
35541;DHT22;21650;48.840;9.162;2022-08-27T10:13:05;19.80;99.90
35541;DHT22;21650;48.840;9.162;2022-08-27T10:15:42;19.80;99.90
35541;DHT22;21650;48.840;9.162;2022-08-27T10:18:13;19.70;99.90
35541;DHT22;21650;48.840;9.162;2022-08-27T10:20:51;19.80;99.90
35541;DHT22;21650;48.840;9.162;2022-08-27T10:26:41;19.70;99.90
35541;DHT22;21650;48.840;9.162;2022-08-27T10:29:18;19.90;99.90
35541;DHT22;21650;48.840;9.162;2022-08-27T10:37:41;19.90;99.90
35541;DHT22;21650;48.840;9.162;2022-08-27T10:40:17;19.90;99.90
35541;DHT22;21650;48.840;9.162;2022-08-27T10:45:30;20.20;99.90
35541;DHT22;21650;48.840;9.162;2022-08-27T10:53:59;20.10;99.90
35541;DHT22;21650;48.840;9.162;2022-08-27T10:56:32;20.20;99.90
35541;DHT22;21650;48.840;9.162;2022-08-27T11:02:49;20.40;99.90
35541;DHT22;21650;48.840;9.162;2022-08-27T11:04:52;20.30;99.90
35541;DHT22;21650;48.840;9.162;2022-08-27T11:07:37;20.40;99.90
35541;DHT22;21650;48.840;9.162;2022-08-27T11:10:24;20.40;99.90
35541;DHT22;21650;48.840;9.162;2022-08-27T11:12:55;20.30;99.90
35541;DHT22;21650;48.840;9.162;2022-08-27T11:15:29;20.50;99.90
35541;DHT22;21650;48.840;9.162;2022-08-27T11:20:35;20.10;99.90
35541;DHT22;21650;48.840;9.162;2022-08-27T11:23:13;20.20;99.90
35541;DHT22;21650;48.840;9.162;2022-08-27T11:26:01;20.40;99.90
35541;DHT22;21650;48.840;9.162;2022-08-27T11:28:52;20.40;99.90
35541;DHT22;21650;48.840;9.162;2022-08-27T11:31:37;20.50;99.90
35541;DHT22;21650;48.840;9.162;2022-08-27T11:34:17;20.60;99.90
35541;DHT22;21650;48.840;9.162;2022-08-27T11:44:42;20.70;99.90
35541;DHT22;21650;48.840;9.162;2022-08-27T11:47:20;20.80;99.90
35541;DHT22;21650;48.840;9.162;2022-08-27T11:49:59;20.80;99.90
35541;DHT22;21650;48.840;9.162;2022-08-27T11:52:32;21.00;99.90
35541;DHT22;21650;48.840;9.162;2022-08-27T11:57:33;20.80;99.90
35541;DHT22;21650;48.840;9.162;2022-08-27T12:02:41;20.90;99.90
35541;DHT22;21650;48.840;9.162;2022-08-27T12:05:22;21.00;99.90
35541;DHT22;21650;48.840;9.162;2022-08-27T12:07:50;21.10;99.90
35541;DHT22;21650;48.840;9.162;2022-08-27T12:10:19;21.10;99.90
35541;DHT22;21650;48.840;9.162;2022-08-27T12:18:35;20.80;99.90
35541;DHT22;21650;48.840;9.162;2022-08-27T12:21:05;20.80;99.90
35541;DHT22;21650;48.840;9.162;2022-08-27T12:28:54;21.10;99.90
35541;DHT22;21650;48.840;9.162;2022-08-27T12:31:41;21.10;99.90
35541;DHT22;21650;48.840;9.162;2022-08-27T12:34:14;21.10;99.90
35541;DHT22;21650;48.840;9.162;2022-08-27T12:36:41;20.90;99.90
35541;DHT22;21650;48.840;9.162;2022-08-27T12:39:14;20.80;99.90
35541;DHT22;21650;48.840;9.162;2022-08-27T12:41:45;21.00;99.90
35541;DHT22;21650;48.840;9.162;2022-08-27T12:44:13;21.10;99.90
35541;DHT22;21650;48.840;9.162;2022-08-27T12:47:03;21.20;99.90
35541;DHT22;21650;48.840;9.162;2022-08-27T12:49:47;21.40;99.90
35541;DHT22;21650;48.840;9.162;2022-08-27T12:58:10;21.50;99.90
35541;DHT22;21650;48.840;9.162;2022-08-27T13:00:32;21.70;99.90
35541;DHT22;21650;48.840;9.162;2022-08-27T13:05:56;21.90;99.90
35541;DHT22;21650;48.840;9.162;2022-08-27T13:10:53;21.60;99.90
35541;DHT22;21650;48.840;9.162;2022-08-27T13:13:21;21.70;99.90
35541;DHT22;21650;48.840;9.162;2022-08-27T13:15:52;21.70;99.90
35541;DHT22;21650;48.840;9.162;2022-08-27T13:18:20;21.70;99.90
35541;DHT22;21650;48.840;9.162;2022-08-27T13:20:48;21.50;99.90
35541;DHT22;21650;48.840;9.162;2022-08-27T13:23:17;21.50;99.90
35541;DHT22;21650;48.840;9.162;2022-08-27T13:26:03;21.50;99.90
35541;DHT22;21650;48.840;9.162;2022-08-27T13:28:29;21.30;99.90
35541;DHT22;21650;48.840;9.162;2022-08-27T13:30:56;21.20;99.90
35541;DHT22;21650;48.840;9.162;2022-08-27T13:33:26;21.20;99.90
35541;DHT22;21650;48.840;9.162;2022-08-27T13:35:53;21.20;99.90
35541;DHT22;21650;48.840;9.162;2022-08-27T13:38:20;21.20;99.90
35541;DHT22;21650;48.840;9.162;2022-08-27T13:43:44;21.30;99.90
35541;DHT22;21650;48.840;9.162;2022-08-27T13:46:18;21.20;99.90
35541;DHT22;21650;48.840;9.162;2022-08-27T13:48:47;21.20;99.90
35541;DHT22;21650;48.840;9.162;2022-08-27T13:51:14;21.10;99.90
35541;DHT22;21650;48.840;9.162;2022-08-27T13:53:47;21.20;99.90
35541;DHT22;21650;48.840;9.162;2022-08-27T13:56:38;21.30;99.90
35541;DHT22;21650;48.840;9.162;2022-08-27T14:04:41;21.60;99.90
35541;DHT22;21650;48.840;9.162;2022-08-27T14:09:54;21.70;99.90
35541;DHT22;21650;48.840;9.162;2022-08-27T14:12:36;21.60;99.90
35541;DHT22;21650;48.840;9.162;2022-08-27T14:15:20;21.60;99.90
35541;DHT22;21650;48.840;9.162;2022-08-27T14:17:48;21.70;99.90
35541;DHT22;21650;48.840;9.162;2022-08-27T14:20:16;21.60;99.90
35541;DHT22;21650;48.840;9.162;2022-08-27T14:22:43;21.70;99.90
35541;DHT22;21650;48.840;9.162;2022-08-27T14:25:09;21.60;99.90
35541;DHT22;21650;48.840;9.162;2022-08-27T14:27:37;21.60;99.90
35541;DHT22;21650;48.840;9.162;2022-08-27T14:30:09;21.70;99.90
35541;DHT22;21650;48.840;9.162;2022-08-27T14:32:35;21.70;99.90
35541;DHT22;21650;48.840;9.162;2022-08-27T14:35:01;21.60;99.90
35541;DHT22;21650;48.840;9.162;2022-08-27T14:37:27;21.60;99.90
35541;DHT22;21650;48.840;9.162;2022-08-27T14:39:52;21.60;99.90
35541;DHT22;21650;48.840;9.162;2022-08-27T14:42:18;21.50;99.90
35541;DHT22;21650;48.840;9.162;2022-08-27T14:44:44;21.50;99.90
35541;DHT22;21650;48.840;9.162;2022-08-27T14:47:11;21.70;99.90
35541;DHT22;21650;48.840;9.162;2022-08-27T14:49:40;21.70;99.90
35541;DHT22;21650;48.840;9.162;2022-08-27T14:52:07;21.70;99.90
35541;DHT22;21650;48.840;9.162;2022-08-27T14:54:34;21.70;99.90
35541;DHT22;21650;48.840;9.162;2022-08-27T14:57:01;21.70;99.90
35541;DHT22;21650;48.840;9.162;2022-08-27T14:59:27;21.60;99.90
35541;DHT22;21650;48.840;9.162;2022-08-27T15:01:54;21.70;99.90
35541;DHT22;21650;48.840;9.162;2022-08-27T15:04:23;21.80;99.90
35541;DHT22;21650;48.840;9.162;2022-08-27T15:06:49;21.70;99.90
35541;DHT22;21650;48.840;9.162;2022-08-27T15:09:14;21.70;99.90
35541;DHT22;21650;48.840;9.162;2022-08-27T15:11:40;21.80;99.90
35541;DHT22;21650;48.840;9.162;2022-08-27T15:14:14;22.00;99.90
35541;DHT22;21650;48.840;9.162;2022-08-27T15:16:42;22.00;99.90
35541;DHT22;21650;48.840;9.162;2022-08-27T15:19:09;22.10;99.90
35541;DHT22;21650;48.840;9.162;2022-08-27T15:21:37;22.30;99.90
35541;DHT22;21650;48.840;9.162;2022-08-27T15:24:25;22.10;99.90
35541;DHT22;21650;48.840;9.162;2022-08-27T15:26:52;22.10;99.90
35541;DHT22;21650;48.840;9.162;2022-08-27T15:29:19;22.20;99.90
35541;DHT22;21650;48.840;9.162;2022-08-27T15:31:44;22.30;99.90
35541;DHT22;21650;48.840;9.162;2022-08-27T15:34:11;22.20;99.90
35541;DHT22;21650;48.840;9.162;2022-08-27T15:36:37;22.30;99.90
35541;DHT22;21650;48.840;9.162;2022-08-27T15:39:03;22.40;99.90
35541;DHT22;21650;48.840;9.162;2022-08-27T15:41:29;22.50;99.90
35541;DHT22;21650;48.840;9.162;2022-08-27T15:43:56;22.40;99.90
35541;DHT22;21650;48.840;9.162;2022-08-27T15:46:21;22.40;99.90
35541;DHT22;21650;48.840;9.162;2022-08-27T15:48:47;22.30;99.90
35541;DHT22;21650;48.840;9.162;2022-08-27T15:51:13;22.10;99.90
35541;DHT22;21650;48.840;9.162;2022-08-27T15:53:40;21.80;99.90
35541;DHT22;21650;48.840;9.162;2022-08-27T15:56:07;21.80;99.90
35541;DHT22;21650;48.840;9.162;2022-08-27T15:58:35;21.80;99.90
35541;DHT22;21650;48.840;9.162;2022-08-27T16:01:10;21.80;99.90
35541;DHT22;21650;48.840;9.162;2022-08-27T16:03:37;21.60;99.90
35541;DHT22;21650;48.840;9.162;2022-08-27T16:06:05;21.70;99.90
35541;DHT22;21650;48.840;9.162;2022-08-27T16:08:31;21.60;99.90
35541;DHT22;21650;48.840;9.162;2022-08-27T16:10:57;21.60;99.90
35541;DHT22;21650;48.840;9.162;2022-08-27T16:13:23;21.60;99.90
35541;DHT22;21650;48.840;9.162;2022-08-27T16:15:51;21.60;99.90
35541;DHT22;21650;48.840;9.162;2022-08-27T16:18:21;21.60;99.90
35541;DHT22;21650;48.840;9.162;2022-08-27T16:20:48;21.50;99.90
35541;DHT22;21650;48.840;9.162;2022-08-27T16:23:13;21.60;99.90
35541;DHT22;21650;48.840;9.162;2022-08-27T16:25:39;21.70;99.90
35541;DHT22;21650;48.840;9.162;2022-08-27T16:28:04;21.70;99.90
35541;DHT22;21650;48.840;9.162;2022-08-27T16:30:30;21.60;99.90
35541;DHT22;21650;48.840;9.162;2022-08-27T16:32:56;21.60;99.90
35541;DHT22;21650;48.840;9.162;2022-08-27T16:35:22;21.60;99.90
35541;DHT22;21650;48.840;9.162;2022-08-27T16:37:49;21.40;99.90
35541;DHT22;21650;48.840;9.162;2022-08-27T16:40:15;21.20;99.90
35541;DHT22;21650;48.840;9.162;2022-08-27T16:42:47;21.00;99.90
35541;DHT22;21650;48.840;9.162;2022-08-27T16:45:14;21.00;99.90
35541;DHT22;21650;48.840;9.162;2022-08-27T16:47:40;20.90;99.90
35541;DHT22;21650;48.840;9.162;2022-08-27T16:50:25;20.90;99.90
35541;DHT22;21650;48.840;9.162;2022-08-27T16:55:30;20.80;99.90
35541;DHT22;21650;48.840;9.162;2022-08-27T16:57:56;20.80;99.90
35541;DHT22;21650;48.840;9.162;2022-08-27T17:00:22;20.70;99.90
35541;DHT22;21650;48.840;9.162;2022-08-27T17:02:48;20.60;99.90
35541;DHT22;21650;48.840;9.162;2022-08-27T17:05:14;20.60;99.90
35541;DHT22;21650;48.840;9.162;2022-08-27T17:07:39;20.50;99.90
35541;DHT22;21650;48.840;9.162;2022-08-27T17:10:05;20.60;99.90
35541;DHT22;21650;48.840;9.162;2022-08-27T17:12:31;20.70;99.90